createdAt,value
2019-03-29T00:01:41.854Z,54.73
2019-03-29T00:04:10.697Z,55.80
2019-03-29T00:06:44.764Z,53.23
2019-03-29T00:09:14.126Z,54.43
2019-03-29T00:11:43.681Z,56.27
2019-03-29T00:14:12.260Z,53.83
2019-03-29T00:16:41.636Z,54.03
2019-03-29T00:19:10.015Z,58.30
2019-03-29T00:21:39.123Z,55.20
2019-03-29T00:24:08.302Z,57.70
2019-03-29T00:26:36.841Z,61.03
2019-03-29T00:29:05.177Z,58.40
2019-03-29T00:31:33.836Z,60.40
2019-03-29T00:34:02.292Z,61.60
2019-03-29T00:36:31.080Z,59.00
2019-03-29T00:38:59.554Z,59.27
2019-03-29T00:41:28.159Z,62.23
2019-03-29T00:43:56.592Z,62.87
2019-03-29T00:46:25.061Z,65.07
2019-03-29T00:48:53.522Z,66.97
2019-03-29T00:51:22.311Z,63.63
2019-03-29T00:53:50.719Z,63.73
2019-03-29T00:56:19.282Z,67.37
2019-03-29T00:58:48.869Z,65.13
2019-03-29T01:01:17.643Z,67.57
2019-03-29T01:03:48.233Z,71.53
2019-03-29T01:06:16.808Z,74.60
2019-03-29T01:08:45.356Z,74.13
2019-03-29T01:11:14.284Z,68.47
2019-03-29T01:13:43.503Z,72.60
2019-03-29T01:16:12.369Z,66.20
2019-03-29T01:18:43.166Z,66.13
2019-03-29T01:21:11.771Z,69.37
2019-03-29T01:23:41.728Z,68.07
2019-03-29T01:26:10.289Z,69.17
2019-03-29T01:28:41.939Z,69.30
2019-03-29T01:31:10.483Z,65.40
2019-03-29T01:33:39.320Z,69.20
2019-03-29T01:36:07.856Z,63.07
2019-03-29T01:38:36.319Z,63.43
2019-03-29T01:41:06.494Z,66.97
2019-03-29T01:43:35.285Z,64.13
2019-03-29T01:46:04.788Z,63.67
2019-03-29T01:48:33.452Z,59.93
2019-03-29T01:51:02.042Z,61.63
2019-03-29T01:53:30.486Z,66.00
2019-03-29T01:55:58.804Z,60.37
2019-03-29T01:58:27.344Z,58.13
2019-03-29T02:00:55.722Z,63.33
2019-03-29T02:03:24.400Z,60.97
2019-03-29T02:05:53.910Z,65.27
2019-03-29T02:08:35.113Z,60.17
2019-03-29T02:10:52.794Z,58.23
2019-03-29T02:13:21.408Z,56.97
2019-03-29T02:15:50.801Z,57.83
2019-03-29T02:18:19.271Z,59.60
2019-03-29T02:20:47.665Z,59.63
2019-03-29T02:23:16.760Z,60.20
2019-03-29T02:25:45.137Z,54.17
2019-03-29T02:28:16.780Z,54.27
2019-03-29T02:30:45.172Z,58.77
2019-03-29T02:33:13.860Z,55.27
2019-03-29T02:35:42.338Z,56.77
2019-03-29T02:38:10.669Z,53.87
2019-03-29T02:40:39.299Z,57.23
2019-03-29T02:43:07.673Z,55.77
2019-03-29T02:45:36.094Z,55.70
2019-03-29T02:48:04.874Z,56.67
2019-03-29T02:50:33.370Z,58.83
2019-03-29T02:53:02.011Z,56.67
2019-03-29T02:55:30.474Z,54.40
2019-03-29T02:57:58.921Z,57.20
2019-03-29T03:00:30.972Z,59.93
2019-03-29T03:02:59.545Z,59.00
2019-03-29T03:05:27.894Z,61.20
2019-03-29T03:07:56.592Z,57.63
2019-03-29T03:10:24.863Z,60.83
2019-03-29T03:12:53.918Z,59.83
2019-03-29T03:15:23.675Z,62.23
2019-03-29T03:17:52.151Z,64.60
2019-03-29T03:20:20.785Z,63.87
2019-03-29T03:22:49.849Z,61.63
2019-03-29T03:25:19.125Z,59.27
2019-03-29T03:27:48.007Z,64.27
2019-03-29T03:30:16.629Z,64.10
2019-03-29T03:32:45.002Z,62.30
2019-03-29T03:35:13.760Z,59.60
2019-03-29T03:37:42.665Z,65.63
2019-03-29T03:40:14.443Z,64.03
2019-03-29T03:42:43.115Z,63.03
2019-03-29T03:45:12.730Z,58.03
2019-03-29T03:47:41.445Z,62.83
2019-03-29T03:50:30.106Z,61.43
2019-03-29T03:52:58.289Z,67.13
2019-03-29T03:55:27.913Z,61.73
2019-03-29T03:57:57.996Z,62.47
2019-03-29T04:00:35.352Z,63.67
2019-03-29T04:03:04.021Z,61.73
2019-03-29T04:05:32.532Z,65.47
2019-03-29T04:08:01.215Z,62.67
2019-03-29T04:10:29.885Z,67.93
2019-03-29T04:13:01.983Z,66.13
2019-03-29T04:15:33.678Z,69.77
2019-03-29T04:18:02.498Z,67.67
2019-03-29T04:20:33.988Z,68.33
2019-03-29T04:23:02.580Z,72.90
2019-03-29T04:25:31.613Z,72.30
2019-03-29T04:27:59.992Z,67.23
2019-03-29T04:30:29.061Z,71.67
2019-03-29T04:32:58.275Z,73.20
2019-03-29T04:35:27.111Z,70.70
2019-03-29T04:37:56.187Z,70.73
2019-03-29T04:40:25.191Z,67.83
2019-03-29T04:42:54.458Z,69.70
2019-03-29T04:45:22.948Z,67.27
2019-03-29T04:47:51.617Z,67.77
2019-03-29T04:50:20.841Z,70.87
2019-03-29T04:52:49.908Z,70.87
2019-03-29T04:55:18.964Z,71.17
2019-03-29T04:57:47.651Z,68.13
2019-03-29T05:00:17.183Z,64.13
2019-03-29T05:02:45.981Z,67.23
2019-03-29T05:05:14.592Z,69.10
2019-03-29T05:07:43.964Z,67.23
2019-03-29T05:10:21.031Z,67.43
2019-03-29T05:12:50.561Z,62.30
2019-03-29T05:15:19.838Z,63.97
2019-03-29T05:17:48.342Z,60.53
2019-03-29T05:20:38.772Z,60.97
2019-03-29T05:23:15.590Z,57.00
2019-03-29T05:26:02.990Z,59.67
2019-03-29T05:28:35.113Z,55.63
2019-03-29T05:31:20.389Z,56.40
2019-03-29T05:34:15.445Z,55.83
2019-03-29T05:36:44.543Z,57.40
2019-03-29T05:39:16.641Z,53.50
2019-03-29T05:41:48.766Z,56.03
2019-03-29T05:44:19.488Z,53.00
2019-03-29T05:46:48.044Z,56.70
2019-03-29T05:49:17.669Z,51.83
2019-03-29T05:51:46.689Z,53.17
2019-03-29T05:54:15.503Z,47.10
2019-03-29T05:56:45.971Z,46.17
2019-03-29T05:59:14.303Z,48.23
2019-03-29T06:01:42.695Z,47.70
2019-03-29T06:04:14.290Z,46.30
2019-03-29T06:06:42.750Z,43.47
2019-03-29T06:09:11.057Z,37.53
2019-03-29T06:11:40.113Z,42.50
2019-03-29T06:14:08.410Z,39.07
2019-03-29T06:25:22.191Z,32.57
2019-03-29T06:27:51.596Z,33.77
2019-03-29T06:30:45.828Z,35.63
2019-03-29T06:33:06.022Z,33.67
2019-03-29T06:35:38.234Z,33.10
2019-03-29T06:38:11.694Z,38.20
2019-03-29T06:40:40.669Z,35.43
2019-03-29T06:43:49.398Z,35.73
2019-03-29T06:50:33.730Z,34.93
2019-03-29T06:53:02.932Z,34.20
2019-03-29T06:55:31.396Z,36.13
2019-03-29T06:58:00.199Z,31.53
2019-03-29T07:00:34.669Z,32.27
2019-03-29T07:03:06.219Z,35.67
2019-03-29T07:05:37.256Z,35.93
2019-03-29T07:08:11.190Z,32.23
2019-03-29T07:10:41.754Z,32.57
2019-03-29T07:13:10.480Z,29.73
2019-03-29T07:15:39.149Z,33.33
2019-03-29T07:18:07.626Z,30.33
2019-03-29T07:20:36.298Z,32.40
2019-03-29T07:23:05.317Z,30.17
2019-03-29T07:25:36.753Z,34.40
2019-03-29T07:28:24.670Z,28.60
2019-03-29T07:30:53.342Z,30.30
2019-03-29T07:33:24.819Z,29.60
2019-03-29T07:35:53.633Z,27.93
2019-03-29T07:57:56.232Z,17.00
2019-03-29T08:00:24.460Z,18.33
2019-03-29T08:02:52.733Z,17.97
2019-03-29T08:05:20.917Z,17.80
2019-03-29T08:07:51.088Z,16.70
2019-03-29T08:10:27.377Z,18.13
2019-03-29T08:12:49.757Z,19.73
2019-03-29T08:15:19.510Z,17.87
2019-03-29T08:17:47.797Z,18.60
2019-03-29T08:20:38.147Z,15.57
2019-03-29T08:22:46.079Z,18.67
2019-03-29T08:25:14.305Z,22.47
2019-03-29T08:27:42.581Z,18.23
2019-03-29T08:30:10.731Z,20.77
2019-03-29T08:32:38.971Z,18.73
2019-03-29T08:35:07.283Z,20.47
2019-03-29T08:37:35.466Z,17.90
2019-03-29T08:40:04.401Z,19.17
2019-03-29T08:42:32.553Z,21.33
2019-03-29T08:45:00.767Z,21.20
2019-03-29T08:47:29.132Z,25.17
2019-03-29T08:49:57.333Z,21.77
2019-03-29T08:52:25.553Z,21.90
2019-03-29T08:54:53.764Z,25.13
2019-03-29T08:57:21.942Z,18.90
2019-03-29T08:59:51.592Z,19.47
2019-03-29T09:02:19.874Z,18.40
2019-03-29T09:04:48.832Z,18.47
2019-03-29T09:07:16.990Z,17.13
2019-03-29T09:09:46.528Z,17.87
2019-03-29T09:12:15.125Z,16.93
2019-03-29T09:14:43.465Z,18.43
2019-03-29T09:17:11.603Z,19.97
2019-03-29T09:19:40.037Z,19.13
2019-03-29T09:22:08.208Z,16.47
2019-03-29T09:24:36.352Z,18.77
2019-03-29T09:27:04.682Z,19.77
2019-03-29T09:29:32.809Z,19.63
2019-03-29T09:32:01.134Z,18.90
2019-03-29T09:34:29.369Z,20.23
2019-03-29T09:36:59.933Z,19.50
2019-03-29T09:39:27.632Z,17.13
2019-03-29T09:41:55.795Z,18.03
2019-03-29T09:44:24.080Z,17.30
2019-03-29T09:46:52.318Z,19.90
2019-03-29T09:49:20.721Z,19.27
2019-03-29T09:51:49.216Z,16.93
2019-03-29T09:54:20.284Z,15.80
2019-03-29T09:56:48.476Z,18.57
2019-03-29T09:59:16.867Z,17.43
2019-03-29T10:01:45.331Z,17.13
2019-03-29T10:04:13.439Z,15.97
2019-03-29T10:06:41.670Z,14.93
2019-03-29T10:09:11.836Z,19.63
2019-03-29T10:11:39.908Z,14.47
2019-03-29T10:14:07.990Z,14.73
2019-03-29T10:16:36.285Z,15.70
2019-03-29T10:19:04.442Z,17.37
2019-03-29T10:21:34.265Z,13.13
2019-03-29T10:24:03.977Z,16.93
2019-03-29T10:26:32.219Z,15.20
2019-03-29T10:29:00.414Z,12.20
2019-03-29T10:31:32.828Z,12.50
2019-03-29T10:34:00.558Z,12.30
2019-03-29T10:36:28.830Z,18.30
2019-03-29T10:38:56.947Z,14.20
2019-03-29T10:41:25.122Z,12.87
2019-03-29T10:43:53.523Z,13.30
2019-03-29T10:46:21.720Z,14.60
2019-03-29T10:48:49.879Z,16.60
2019-03-29T10:51:20.591Z,14.93
2019-03-29T10:53:48.714Z,14.60
2019-03-29T10:56:17.031Z,12.67
2019-03-29T10:58:45.170Z,16.23
2019-03-29T11:01:13.405Z,11.97
2019-03-29T11:03:41.729Z,12.70
2019-03-29T11:06:10.638Z,16.70
2019-03-29T11:08:43.320Z,13.33
2019-03-29T11:11:09.804Z,14.60
2019-03-29T11:13:40.746Z,13.43
2019-03-29T11:16:08.118Z,12.80
2019-03-29T11:18:36.254Z,16.23
2019-03-29T11:21:04.766Z,13.30
2019-03-29T11:23:32.908Z,14.77
2019-03-29T11:26:01.026Z,12.47
2019-03-29T11:28:29.147Z,12.30
2019-03-29T11:31:00.092Z,16.20
2019-03-29T11:33:28.245Z,14.57
2019-03-29T11:35:56.339Z,13.13
2019-03-29T11:38:24.420Z,15.60
2019-03-29T11:40:52.609Z,13.50
2019-03-29T11:43:27.112Z,14.63
2019-03-29T11:45:53.172Z,17.13
2019-03-29T11:48:21.201Z,16.53
2019-03-29T11:50:49.377Z,15.60
2019-03-29T11:53:17.561Z,17.50
2019-03-29T11:55:45.812Z,16.70
2019-03-29T11:58:14.103Z,14.33
2019-03-29T12:00:42.293Z,15.13
2019-03-29T12:03:10.689Z,12.87
2019-03-29T12:05:38.743Z,16.37
2019-03-29T12:08:07.125Z,12.67
2019-03-29T12:10:37.231Z,15.97
2019-03-29T12:13:06.870Z,15.87
2019-03-29T12:15:35.267Z,15.17
2019-03-29T12:18:03.531Z,15.20
2019-03-29T12:20:31.672Z,15.53
2019-03-29T12:23:00.197Z,13.33
2019-03-29T12:25:28.732Z,13.33
2019-03-29T12:27:57.032Z,14.77
2019-03-29T12:30:31.665Z,18.43
2019-03-29T12:32:55.207Z,14.17
2019-03-29T12:35:23.457Z,16.53
2019-03-29T12:37:51.754Z,13.90
2019-03-29T12:40:20.063Z,18.60
2019-03-29T12:42:48.452Z,16.47
2019-03-29T12:45:17.136Z,17.73
2019-03-29T12:47:45.575Z,15.27
2019-03-29T12:50:14.120Z,14.37
2019-03-29T12:52:43.608Z,15.13
2019-03-29T12:55:12.667Z,13.83
2019-03-29T12:57:40.951Z,15.03
2019-03-29T13:00:10.726Z,17.27
2019-03-29T13:02:39.053Z,18.33
2019-03-29T13:05:08.153Z,15.70
2019-03-29T13:07:36.486Z,13.97
2019-03-29T13:10:05.606Z,16.27
2019-03-29T13:12:34.028Z,13.63
2019-03-29T13:15:02.431Z,16.63
2019-03-29T13:17:30.889Z,16.23
2019-03-29T13:19:59.542Z,14.07
2019-03-29T13:22:28.078Z,12.47
2019-03-29T13:24:59.348Z,11.87
2019-03-29T13:27:27.841Z,11.77
2019-03-29T13:29:56.140Z,16.00
2019-03-29T13:32:24.576Z,13.53
2019-03-29T13:34:52.953Z,11.90
2019-03-29T13:37:21.269Z,13.00
2019-03-29T13:39:49.534Z,12.90
2019-03-29T13:42:18.218Z,15.07
2019-03-29T13:44:46.547Z,13.73
2019-03-29T13:47:17.994Z,13.50
2019-03-29T13:49:45.757Z,13.37
2019-03-29T13:52:14.114Z,13.90
2019-03-29T13:54:42.775Z,14.17
2019-03-29T13:57:11.771Z,11.40
2019-03-29T13:59:41.707Z,10.60
2019-03-29T14:02:11.632Z,11.30
2019-03-29T14:04:40.534Z,10.77
2019-03-29T14:07:10.374Z,11.33
2019-03-29T14:09:38.934Z,12.87
2019-03-29T14:12:08.033Z,10.10
2019-03-29T14:14:38.386Z,9.47
2019-03-29T14:17:07.748Z,9.30
2019-03-29T14:19:42.028Z,10.70
2019-03-29T14:22:10.962Z,14.47
2019-03-29T14:24:39.540Z,16.07
2019-03-29T14:27:09.640Z,13.70
2019-03-29T14:29:38.346Z,13.17
2019-03-29T14:32:07.241Z,15.03
2019-03-29T14:34:36.620Z,15.00
2019-03-29T14:37:05.344Z,12.77
2019-03-29T14:39:33.785Z,12.67
2019-03-29T14:42:04.723Z,10.47
2019-03-29T14:44:33.414Z,9.87
2019-03-29T14:47:03.380Z,11.57
2019-03-29T14:49:32.655Z,11.57
2019-03-29T14:52:01.551Z,12.40
2019-03-29T14:54:33.701Z,11.77
2019-03-29T14:57:05.425Z,11.27
2019-03-29T14:59:33.173Z,12.37
2019-03-29T15:02:08.187Z,11.93
2019-03-29T15:04:36.672Z,12.00
2019-03-29T15:07:07.512Z,14.30
2019-03-29T15:09:38.561Z,12.23
2019-03-29T15:12:07.352Z,11.40
2019-03-29T15:14:37.952Z,12.80
2019-03-29T15:17:07.850Z,13.90
2019-03-29T15:19:36.549Z,11.70
2019-03-29T15:22:07.662Z,12.87
2019-03-29T15:24:36.362Z,13.30
2019-03-29T15:27:05.100Z,15.93
2019-03-29T15:29:40.760Z,14.33
2019-03-29T15:32:09.380Z,12.57
2019-03-29T15:34:38.239Z,14.20
2019-03-29T15:37:09.881Z,13.60
2019-03-29T15:39:37.571Z,13.13
2019-03-29T15:42:06.072Z,15.87
2019-03-29T15:44:37.328Z,14.53
2019-03-29T15:47:06.232Z,16.17
2019-03-29T15:49:35.337Z,16.10
2019-03-29T15:52:08.460Z,15.97
2019-03-29T15:54:36.975Z,14.00
2019-03-29T15:57:05.578Z,15.57
2019-03-29T15:59:34.488Z,13.50
2019-03-29T16:02:03.101Z,12.67
2019-03-29T16:04:31.794Z,15.53
2019-03-29T16:07:00.468Z,14.70
2019-03-29T16:09:29.032Z,12.97
2019-03-29T16:11:58.894Z,15.20
2019-03-29T16:14:29.422Z,14.23
2019-03-29T16:16:57.911Z,16.47
2019-03-29T16:19:26.545Z,17.00
2019-03-29T16:21:55.211Z,17.40
2019-03-29T16:24:24.876Z,17.37
2019-03-29T16:26:57.196Z,15.10
2019-03-29T16:29:25.422Z,15.90
2019-03-29T16:31:53.826Z,14.90
2019-03-29T16:34:22.581Z,14.03
2019-03-29T16:36:50.864Z,14.17
2019-03-29T16:39:19.678Z,14.37
2019-03-29T16:41:47.804Z,14.47
2019-03-29T16:44:16.762Z,13.03
2019-03-29T16:46:45.126Z,11.87
2019-03-29T16:49:13.372Z,13.33
2019-03-29T16:51:41.765Z,13.40
2019-03-29T16:54:09.953Z,12.83
2019-03-29T16:56:41.834Z,10.73
2019-03-29T16:59:10.070Z,11.67
2019-03-29T17:01:38.696Z,13.20
2019-03-29T17:04:06.981Z,12.47
2019-03-29T17:06:35.338Z,13.57
2019-03-29T17:09:06.709Z,13.20
2019-03-29T17:11:35.149Z,11.90
2019-03-29T17:14:03.453Z,15.40
2019-03-29T17:16:31.804Z,15.83
2019-03-29T17:19:00.185Z,18.20
2019-03-29T17:21:46.588Z,13.57
2019-03-29T17:24:14.929Z,15.83
2019-03-29T17:26:43.259Z,15.93
2019-03-29T17:29:11.569Z,14.43
2019-03-29T17:31:42.219Z,13.43
2019-03-29T17:34:10.625Z,13.80
2019-03-29T17:36:39.046Z,13.50
2019-03-29T17:39:07.370Z,18.13
2019-03-29T17:41:35.628Z,13.37
2019-03-29T17:44:04.014Z,15.77
2019-03-29T17:46:32.739Z,15.90
2019-03-29T17:49:01.275Z,14.80
2019-03-29T17:51:29.674Z,12.97
2019-03-29T17:53:57.994Z,16.60
2019-03-29T17:56:26.378Z,16.60
2019-03-29T17:58:54.730Z,16.83
2019-03-29T18:01:24.581Z,17.00
2019-03-29T18:03:52.927Z,17.07
2019-03-29T18:06:21.165Z,20.10
2019-03-29T18:08:49.472Z,15.70
2019-03-29T18:11:17.653Z,18.93
2019-03-29T18:13:46.039Z,16.73
2019-03-29T18:16:29.897Z,18.10
2019-03-29T18:18:49.475Z,16.90
2019-03-29T18:21:17.854Z,19.03
2019-03-29T18:23:46.199Z,18.47
2019-03-29T18:26:16.683Z,17.30
2019-03-29T18:28:45.006Z,16.40
2019-03-29T18:31:13.317Z,16.10
2019-03-29T18:33:41.696Z,16.50
2019-03-29T18:36:09.852Z,21.73
2019-03-29T18:38:39.446Z,18.40
2019-03-29T18:41:07.737Z,18.50
2019-03-29T18:43:36.011Z,17.33
2019-03-29T18:46:04.516Z,19.93
2019-03-29T18:48:32.787Z,18.87
2019-03-29T18:51:01.062Z,23.43
2019-03-29T18:53:29.396Z,18.43
2019-03-29T18:55:57.613Z,20.87
2019-03-29T18:58:25.999Z,19.97
2019-03-29T19:00:54.327Z,21.40
2019-03-29T19:03:22.557Z,20.40
2019-03-29T19:05:51.103Z,23.57
2019-03-29T19:08:19.590Z,22.47
2019-03-29T19:10:47.818Z,23.60
2019-03-29T19:13:15.951Z,21.47
2019-03-29T19:15:44.327Z,22.67
2019-03-29T19:18:14.452Z,19.43
2019-03-29T19:20:42.844Z,21.83
2019-03-29T19:23:11.236Z,19.50
2019-03-29T19:25:39.453Z,20.37
2019-03-29T19:28:08.121Z,22.23
2019-03-29T19:30:36.432Z,24.47
2019-03-29T19:33:05.103Z,23.13
2019-03-29T19:35:33.523Z,20.73
2019-03-29T19:38:04.135Z,20.70
2019-03-29T19:40:32.473Z,19.80
2019-03-29T19:43:00.689Z,20.53
2019-03-29T19:45:28.806Z,22.10
2019-03-29T19:47:57.144Z,23.57
2019-03-29T19:50:27.613Z,21.40
2019-03-29T19:52:55.858Z,21.93
2019-03-29T19:55:24.280Z,23.87
2019-03-29T19:57:52.496Z,21.43
2019-03-29T20:00:30.332Z,22.77
2019-03-29T20:02:58.537Z,24.83
2019-03-29T20:05:27.819Z,21.50
2019-03-29T20:07:56.783Z,23.10
2019-03-29T20:10:25.257Z,21.63
2019-03-29T20:12:53.699Z,23.70
2019-03-29T20:15:22.090Z,25.00
2019-03-29T20:17:54.582Z,24.00
2019-03-29T20:20:23.574Z,20.73
2019-03-29T20:22:53.358Z,24.37
2019-03-29T20:25:21.740Z,21.20
2019-03-29T20:27:51.404Z,26.33
2019-03-29T20:30:20.022Z,23.77
2019-03-29T20:32:48.353Z,24.43
2019-03-29T20:35:16.827Z,24.57
2019-03-29T20:37:45.146Z,23.23
2019-03-29T20:40:13.909Z,22.93
2019-03-29T20:42:42.301Z,24.87
2019-03-29T20:45:11.183Z,22.23
2019-03-29T20:47:42.466Z,26.37
2019-03-29T20:50:09.965Z,23.93
2019-03-29T20:52:38.292Z,24.47
2019-03-29T20:55:06.997Z,23.43
2019-03-29T20:57:35.402Z,24.93
2019-03-29T21:00:04.483Z,23.47
2019-03-29T21:05:20.538Z,23.90
2019-03-29T21:07:49.434Z,24.63
2019-03-29T21:10:18.069Z,22.17
2019-03-29T21:12:46.516Z,24.17
2019-03-29T21:15:14.862Z,26.57
2019-03-29T21:17:55.806Z,24.57
2019-03-29T21:20:13.050Z,23.40
2019-03-29T21:22:41.567Z,23.80
2019-03-29T21:25:09.846Z,23.70
2019-03-29T21:27:38.228Z,27.43
2019-03-29T21:30:08.450Z,25.83
2019-03-29T21:32:36.732Z,22.93
2019-03-29T21:35:06.769Z,22.37
2019-03-29T21:37:34.947Z,25.33
2019-03-29T21:40:04.402Z,25.97
2019-03-29T21:42:32.780Z,29.00
2019-03-29T21:45:01.011Z,25.17
2019-03-29T21:47:29.260Z,26.57
2019-03-29T21:49:57.504Z,26.23
2019-03-29T21:52:25.785Z,24.47
2019-03-29T21:54:53.907Z,30.53
2019-03-29T21:57:22.055Z,25.37
2019-03-29T21:59:50.305Z,24.53
2019-03-29T22:02:21.396Z,26.40
2019-03-29T22:04:50.788Z,25.47
2019-03-29T22:07:19.052Z,25.70
2019-03-29T22:09:52.001Z,25.93
2019-03-29T22:12:20.282Z,27.20
2019-03-29T22:14:48.598Z,28.00
2019-03-29T22:17:16.942Z,24.33
2019-03-29T22:19:45.357Z,25.70
2019-03-29T22:22:13.543Z,25.53
2019-03-29T22:24:41.704Z,24.90
2019-03-29T22:27:10.061Z,23.67
2019-03-29T22:29:38.322Z,22.73
2019-03-29T22:32:06.554Z,24.50
2019-03-29T22:34:34.845Z,25.40
2019-03-29T22:37:03.042Z,23.07
2019-03-29T22:39:31.206Z,25.20
2019-03-29T22:42:01.461Z,25.30
2019-03-29T22:44:29.707Z,23.53
2019-03-29T22:46:57.846Z,24.10
2019-03-29T22:49:26.178Z,23.23
2019-03-29T22:51:54.497Z,23.40
2019-03-29T22:54:22.723Z,22.83
2019-03-29T22:56:50.970Z,25.80
2019-03-29T22:59:19.368Z,24.63
2019-03-29T23:01:47.864Z,21.10
2019-03-29T23:04:16.160Z,22.13
2019-03-29T23:06:44.315Z,22.10
2019-03-29T23:09:12.609Z,28.93
2019-03-29T23:11:44.629Z,25.60
2019-03-29T23:14:12.897Z,23.87
2019-03-29T23:16:41.063Z,25.20
2019-03-29T23:19:11.700Z,27.10
2019-03-29T23:21:39.964Z,26.67
2019-03-29T23:24:08.238Z,30.93
2019-03-29T23:26:36.436Z,26.07
2019-03-29T23:29:04.792Z,27.17
2019-03-29T23:31:33.144Z,26.53
2019-03-29T23:34:01.626Z,29.30
2019-03-29T23:36:30.055Z,27.03
2019-03-29T23:38:58.310Z,28.17
2019-03-29T23:41:26.691Z,29.60
2019-03-29T23:43:54.884Z,28.50
2019-03-29T23:46:23.122Z,30.53
2019-03-29T23:48:51.329Z,28.40
2019-03-29T23:51:19.529Z,33.30
2019-03-29T23:53:47.885Z,33.63
2019-03-29T23:56:16.152Z,29.80
2019-03-29T23:58:44.408Z,31.00
